createdAt,value
2023-04-09T00:01:46.358Z,101095.50
2023-04-09T00:04:14.124Z,101096.31
2023-04-09T00:06:42.064Z,101091.97
2023-04-09T00:09:09.748Z,101091.13
2023-04-09T00:11:37.724Z,101086.66
2023-04-09T00:14:05.488Z,101085.03
2023-04-09T00:16:33.548Z,101087.69
2023-04-09T00:19:01.304Z,101092.03
2023-04-09T00:21:29.229Z,101078.97
2023-04-09T00:23:56.852Z,101092.78
2023-04-09T00:26:24.776Z,101090.28
2023-04-09T00:28:52.673Z,101093.09
2023-04-09T00:31:21.255Z,101087.19
2023-04-09T00:33:49.014Z,101089.84
2023-04-09T00:36:17.026Z,101095.97
2023-04-09T00:38:45.431Z,101099.44
2023-04-09T00:41:13.457Z,101088.78
2023-04-09T00:43:41.088Z,101082.78
2023-04-09T00:46:09.307Z,101092.50
2023-04-09T00:48:37.079Z,101088.22
2023-04-09T00:51:05.327Z,101086.59
2023-04-09T00:53:33.101Z,101084.91
2023-04-09T00:56:01.862Z,101090.22
2023-04-09T00:58:29.621Z,101079.91
2023-04-09T01:00:57.609Z,101086.91
2023-04-09T01:03:25.571Z,101097.84
2023-04-09T01:06:44.004Z,101097.72
2023-04-09T01:09:43.681Z,101091.72
2023-04-09T01:12:24.390Z,101094.25
2023-04-09T01:14:59.335Z,101098.78
2023-04-09T01:17:42.870Z,101099.47
2023-04-09T01:20:19.587Z,101094.22
2023-04-09T01:22:52.864Z,101095.28
2023-04-09T01:25:21.507Z,101094.38
2023-04-09T01:28:06.987Z,101096.06
2023-04-09T01:30:35.376Z,101091.72
2023-04-09T01:33:05.284Z,101099.53
2023-04-09T01:35:33.119Z,101090.91
2023-04-09T01:38:03.905Z,101099.59
2023-04-09T01:40:31.686Z,101107.34
2023-04-09T01:43:01.394Z,101110.84
2023-04-09T01:45:29.267Z,101108.00
2023-04-09T01:47:58.023Z,101115.81
2023-04-09T01:50:26.044Z,101121.03
2023-04-09T01:52:54.300Z,101107.19
2023-04-09T01:55:21.921Z,101101.22
2023-04-09T01:57:50.400Z,101115.97
2023-04-09T02:00:18.294Z,101120.31
2023-04-09T02:03:04.001Z,101116.75
2023-04-09T02:05:37.541Z,101111.53
2023-04-09T02:08:10.953Z,101113.25
2023-04-09T02:10:40.510Z,101108.91
2023-04-09T02:13:13.848Z,101105.56
2023-04-09T02:15:43.628Z,101109.06
2023-04-09T02:18:28.825Z,101104.75
2023-04-09T02:20:57.433Z,101099.72
2023-04-09T02:23:27.096Z,101115.81
2023-04-09T02:25:55.326Z,101108.13
2023-04-09T02:28:23.222Z,101112.38
2023-04-09T02:30:52.786Z,101107.03
2023-04-09T02:33:20.785Z,101095.69
2023-04-09T02:35:48.711Z,101105.38
2023-04-09T02:38:16.696Z,101101.09
2023-04-09T02:40:44.385Z,101112.34
2023-04-09T02:43:12.549Z,101096.75
2023-04-09T02:45:40.305Z,101105.50
2023-04-09T02:48:08.184Z,101105.50
2023-04-09T02:50:36.696Z,101106.44
2023-04-09T02:53:04.743Z,101101.25
2023-04-09T02:55:32.616Z,101100.47
2023-04-09T02:58:00.813Z,101097.84
2023-04-09T03:00:28.522Z,101095.16
2023-04-09T03:02:58.141Z,101089.09
2023-04-09T03:05:25.995Z,101091.81
2023-04-09T03:07:54.987Z,101085.81
2023-04-09T03:10:22.858Z,101086.72
2023-04-09T03:12:50.800Z,101084.22
2023-04-09T03:15:18.557Z,101087.78
2023-04-09T03:17:46.514Z,101087.94
2023-04-09T03:20:14.810Z,101092.28
2023-04-09T03:22:42.983Z,101091.53
2023-04-09T03:25:28.384Z,101086.44
2023-04-09T03:27:56.969Z,101089.13
2023-04-09T03:30:36.509Z,101090.97
2023-04-09T03:33:07.070Z,101091.91
2023-04-09T03:35:43.370Z,101094.53
2023-04-09T03:38:12.596Z,101088.50
2023-04-09T03:40:42.737Z,101094.50
2023-04-09T03:43:10.756Z,101085.84
2023-04-09T03:45:41.529Z,101094.63
2023-04-09T03:48:18.359Z,101081.72
2023-04-09T03:50:46.657Z,101082.69
2023-04-09T03:53:18.381Z,101074.88
2023-04-09T03:55:46.878Z,101077.41
2023-04-09T03:58:21.863Z,101079.13
2023-04-09T04:00:49.692Z,101085.22
2023-04-09T04:03:34.491Z,101084.41
2023-04-09T04:06:16.738Z,101089.53
2023-04-09T04:08:53.555Z,101091.22
2023-04-09T04:11:26.709Z,101095.56
2023-04-09T04:13:56.552Z,101098.16
2023-04-09T04:16:25.385Z,101094.69
2023-04-09T04:18:54.549Z,101106.75
2023-04-09T04:21:22.752Z,101106.75
2023-04-09T04:23:58.173Z,101104.94
2023-04-09T04:26:28.713Z,101107.50
2023-04-09T04:28:57.180Z,101099.59
2023-04-09T04:31:47.779Z,101098.63
2023-04-09T04:34:19.200Z,101110.72
2023-04-09T04:36:52.073Z,101114.09
2023-04-09T04:39:21.007Z,101116.69
2023-04-09T04:41:57.262Z,101118.34
2023-04-09T04:44:28.263Z,101122.34
2023-04-09T04:47:08.582Z,101123.09
2023-04-09T04:49:37.514Z,101131.81
2023-04-09T04:52:07.922Z,101128.44
2023-04-09T04:54:37.052Z,101132.59
2023-04-09T04:57:04.853Z,101132.53
2023-04-09T04:59:40.924Z,101131.41
2023-04-09T05:02:11.841Z,101131.28
2023-04-09T05:05:02.954Z,101127.88
2023-04-09T05:07:37.473Z,101134.91
2023-04-09T05:10:07.773Z,101132.13
2023-04-09T05:12:39.558Z,101131.16
2023-04-09T05:15:08.757Z,101129.25
2023-04-09T05:17:38.332Z,101136.06
2023-04-09T05:20:08.462Z,101133.09
2023-04-09T05:22:52.775Z,101123.38
2023-04-09T05:25:27.441Z,101128.47
2023-04-09T05:27:55.984Z,101135.06
2023-04-09T05:30:25.941Z,101130.38
2023-04-09T05:32:54.406Z,101110.91
2023-04-09T05:35:27.209Z,101123.88
2023-04-09T05:37:55.057Z,101123.09
2023-04-09T05:40:23.303Z,101123.75
2023-04-09T05:42:52.110Z,101123.41
2023-04-09T05:45:36.603Z,101127.88
2023-04-09T05:48:04.511Z,101128.06
2023-04-09T05:50:40.676Z,101128.72
2023-04-09T05:53:15.886Z,101125.06
2023-04-09T05:55:44.031Z,101129.13
2023-04-09T05:58:12.657Z,101132.75
2023-04-09T06:00:40.846Z,101138.56
2023-04-09T06:03:10.538Z,101143.75
2023-04-09T06:05:39.267Z,101133.09
2023-04-09T06:08:08.518Z,101140.25
2023-04-09T06:10:36.693Z,101141.84
2023-04-09T06:13:04.350Z,101145.94
2023-04-09T06:15:32.776Z,101144.81
2023-04-09T06:18:00.491Z,101152.22
2023-04-09T06:20:28.591Z,101152.63
2023-04-09T06:22:56.276Z,101158.53
2023-04-09T06:25:24.538Z,101155.50
2023-04-09T06:27:52.224Z,101155.91
2023-04-09T06:30:20.375Z,101162.97
2023-04-09T06:32:54.495Z,101157.78
2023-04-09T06:35:23.634Z,101165.53
2023-04-09T06:37:51.433Z,101160.88
2023-04-09T06:40:20.739Z,101161.00
2023-04-09T06:42:50.397Z,101157.94
2023-04-09T06:45:24.030Z,101159.53
2023-04-09T06:47:51.692Z,101163.81
2023-04-09T06:50:19.721Z,101166.06
2023-04-09T06:52:47.370Z,101167.38
2023-04-09T06:55:15.565Z,101168.06
2023-04-09T06:57:43.362Z,101173.63
2023-04-09T07:00:11.791Z,101177.22
2023-04-09T07:02:39.941Z,101181.75
2023-04-09T07:05:08.632Z,101179.66
2023-04-09T07:07:36.306Z,101173.88
2023-04-09T07:10:04.430Z,101183.84
2023-04-09T07:12:34.616Z,101188.56
2023-04-09T07:15:05.239Z,101183.25
2023-04-09T07:17:34.015Z,101185.50
2023-04-09T07:20:02.286Z,101190.75
2023-04-09T07:22:30.761Z,101187.59
2023-04-09T07:24:58.700Z,101188.19
2023-04-09T07:27:27.894Z,101194.06
2023-04-09T07:30:00.032Z,101194.06
2023-04-09T07:32:28.610Z,101189.03
2023-04-09T07:34:57.418Z,101189.63
2023-04-09T07:37:25.638Z,101189.41
2023-04-09T07:39:53.883Z,101192.88
2023-04-09T07:42:21.948Z,101190.66
2023-04-09T07:44:50.152Z,101181.84
2023-04-09T07:47:18.014Z,101181.22
2023-04-09T07:49:46.221Z,101189.59
2023-04-09T07:52:13.824Z,101200.22
2023-04-09T07:54:41.797Z,101189.44
2023-04-09T07:57:09.443Z,101183.97
2023-04-09T07:59:37.531Z,101184.72
2023-04-09T08:02:05.588Z,101181.91
2023-04-09T08:04:33.827Z,101187.22
2023-04-09T08:07:01.485Z,101186.28
2023-04-09T08:09:29.396Z,101189.50
2023-04-09T08:11:57.356Z,101189.41
2023-04-09T08:14:25.501Z,101183.03
2023-04-09T08:16:53.390Z,101190.16
2023-04-09T08:19:21.490Z,101183.03
2023-04-09T08:21:49.688Z,101183.72
2023-04-09T08:24:18.378Z,101188.19
2023-04-09T08:26:46.329Z,101183.69
2023-04-09T08:29:15.043Z,101184.09
2023-04-09T08:31:43.229Z,101183.59
2023-04-09T08:34:11.295Z,101187.94
2023-04-09T08:36:39.513Z,101182.72
2023-04-09T08:39:07.552Z,101192.22
2023-04-09T08:41:38.254Z,101187.56
2023-04-09T08:44:06.246Z,101190.75
2023-04-09T08:46:36.953Z,101194.56
2023-04-09T08:49:04.997Z,101194.25
2023-04-09T08:51:32.753Z,101199.53
2023-04-09T08:54:04.477Z,101197.16
2023-04-09T08:56:33.040Z,101196.19
2023-04-09T08:59:01.022Z,101195.75
2023-04-09T09:01:31.049Z,101200.41
2023-04-09T09:04:01.988Z,101193.25
2023-04-09T09:06:33.227Z,101194.28
2023-04-09T09:09:15.088Z,101190.47
2023-04-09T09:11:43.724Z,101188.03
2023-04-09T09:14:14.261Z,101187.59
2023-04-09T09:16:55.548Z,101188.31
2023-04-09T09:19:34.279Z,101195.59
2023-04-09T09:22:08.054Z,101194.78
2023-04-09T09:24:50.670Z,101187.47
2023-04-09T09:27:37.155Z,101200.22
2023-04-09T09:30:07.029Z,101198.06
2023-04-09T09:32:35.653Z,101194.69
2023-04-09T09:35:06.226Z,101199.31
2023-04-09T09:37:34.763Z,101196.94
2023-04-09T09:40:03.031Z,101199.44
2023-04-09T09:42:31.858Z,101199.13
2023-04-09T09:45:00.786Z,101201.09
2023-04-09T09:47:29.753Z,101196.50
2023-04-09T09:49:57.729Z,101196.91
2023-04-09T09:52:28.358Z,101188.81
2023-04-09T09:55:01.313Z,101193.00
2023-04-09T09:57:31.249Z,101186.09
2023-04-09T10:00:04.510Z,101197.16
2023-04-09T10:02:47.830Z,101184.44
2023-04-09T10:05:16.576Z,101180.06
2023-04-09T10:07:45.044Z,101178.97
2023-04-09T10:10:13.252Z,101180.13
2023-04-09T10:12:41.993Z,101185.13
2023-04-09T10:15:10.609Z,101179.59
2023-04-09T10:17:39.022Z,101175.25
2023-04-09T10:20:31.201Z,101180.94
2023-04-09T10:23:03.301Z,101188.31
2023-04-09T10:25:31.318Z,101187.97
2023-04-09T10:28:03.439Z,101180.03
2023-04-09T10:30:36.182Z,101182.44
2023-04-09T10:33:22.073Z,101181.75
2023-04-09T10:35:50.209Z,101180.03
2023-04-09T10:38:32.782Z,101185.88
2023-04-09T10:41:06.362Z,101181.03
2023-04-09T10:43:36.545Z,101179.66
2023-04-09T10:46:26.173Z,101169.09
2023-04-09T10:49:24.370Z,101172.31
2023-04-09T10:52:08.002Z,101173.53
2023-04-09T10:54:46.408Z,101167.91
2023-04-09T10:57:24.613Z,101165.66
2023-04-09T10:59:54.786Z,101164.59
2023-04-09T11:02:31.977Z,101169.06
2023-04-09T11:05:24.846Z,101163.03
2023-04-09T11:08:06.256Z,101170.94
2023-04-09T11:10:34.549Z,101162.91
2023-04-09T11:13:03.244Z,101160.50
2023-04-09T11:15:34.565Z,101163.59
2023-04-09T11:18:03.331Z,101158.09
2023-04-09T11:20:33.410Z,101164.94
2023-04-09T11:23:01.722Z,101158.06
2023-04-09T11:25:32.304Z,101156.75
2023-04-09T11:28:02.658Z,101157.75
2023-04-09T11:30:31.343Z,101159.28
2023-04-09T11:32:59.310Z,101157.06
2023-04-09T11:35:27.410Z,101155.88
2023-04-09T11:37:55.465Z,101161.59
2023-04-09T11:40:25.760Z,101166.50
2023-04-09T11:42:55.704Z,101159.16
2023-04-09T11:45:28.057Z,101148.66
2023-04-09T11:47:56.574Z,101155.78
2023-04-09T11:50:25.047Z,101155.91
2023-04-09T11:52:53.256Z,101156.56
2023-04-09T11:55:24.852Z,101147.78
2023-04-09T11:57:57.477Z,101153.25
2023-04-09T12:00:25.507Z,101153.78
2023-04-09T12:03:04.969Z,101142.50
2023-04-09T12:05:37.113Z,101151.34
2023-04-09T12:08:08.702Z,101150.56
2023-04-09T12:10:38.596Z,101154.00
2023-04-09T12:13:10.563Z,101141.50
2023-04-09T12:15:46.226Z,101142.06
2023-04-09T12:18:14.642Z,101145.63
2023-04-09T12:20:44.293Z,101140.81
2023-04-09T12:23:13.472Z,101152.34
2023-04-09T12:25:43.066Z,101148.13
2023-04-09T12:28:15.891Z,101141.63
2023-04-09T12:30:43.972Z,101148.47
2023-04-09T12:33:12.179Z,101142.25
2023-04-09T12:35:40.042Z,101147.06
2023-04-09T12:38:08.081Z,101150.06
2023-04-09T12:40:37.024Z,101148.66
2023-04-09T12:43:05.656Z,101147.38
2023-04-09T12:45:33.864Z,101151.50
2023-04-09T12:48:02.228Z,101150.34
2023-04-09T12:50:30.077Z,101145.88
2023-04-09T12:52:58.065Z,101144.16
2023-04-09T12:55:25.807Z,101143.84
2023-04-09T12:57:53.702Z,101147.19
2023-04-09T13:00:21.541Z,101147.13
2023-04-09T13:02:49.995Z,101145.19
2023-04-09T13:05:17.777Z,101148.00
2023-04-09T13:07:46.177Z,101144.22
2023-04-09T13:10:13.847Z,101148.84
2023-04-09T13:12:41.903Z,101148.78
2023-04-09T13:15:09.873Z,101156.28
2023-04-09T13:17:37.836Z,101147.66
2023-04-09T13:20:06.044Z,101142.13
2023-04-09T13:22:33.948Z,101143.84
2023-04-09T13:25:01.805Z,101139.66
2023-04-09T13:27:29.788Z,101134.53
2023-04-09T13:29:57.529Z,101132.94
2023-04-09T13:32:25.635Z,101126.78
2023-04-09T13:34:55.292Z,101123.19
2023-04-09T13:37:24.569Z,101122.56
2023-04-09T13:39:52.362Z,101117.22
2023-04-09T13:42:20.281Z,101122.94
2023-04-09T13:44:47.966Z,101118.38
2023-04-09T13:47:17.130Z,101117.69
2023-04-09T13:49:45.361Z,101116.75
2023-04-09T13:52:14.858Z,101113.25
2023-04-09T13:54:42.623Z,101114.44
2023-04-09T13:57:10.710Z,101116.47
2023-04-09T13:59:38.405Z,101110.31
2023-04-09T14:02:06.558Z,101120.84
2023-04-09T14:04:34.523Z,101119.13
2023-04-09T14:07:02.591Z,101107.47
2023-04-09T14:09:30.635Z,101099.66
2023-04-09T14:11:58.674Z,101106.22
2023-04-09T14:14:26.721Z,101103.25
2023-04-09T14:16:55.416Z,101105.84
2023-04-09T14:19:23.702Z,101100.94
2023-04-09T14:21:53.335Z,101100.94
2023-04-09T14:24:23.176Z,101097.72
2023-04-09T14:26:53.613Z,101103.59
2023-04-09T14:29:22.135Z,101096.38
2023-04-09T14:31:50.308Z,101092.81
2023-04-09T14:34:18.158Z,101092.25
2023-04-09T14:36:46.017Z,101096.53
2023-04-09T14:39:13.854Z,101097.63
2023-04-09T14:41:41.877Z,101093.09
2023-04-09T14:44:09.597Z,101097.97
2023-04-09T14:46:37.599Z,101092.03
2023-04-09T14:49:05.337Z,101088.47
2023-04-09T14:51:34.007Z,101088.06
2023-04-09T14:54:01.839Z,101087.09
2023-04-09T14:56:29.827Z,101089.28
2023-04-09T14:58:57.702Z,101088.25
2023-04-09T15:01:27.165Z,101094.22
2023-04-09T15:03:55.837Z,101086.34
2023-04-09T15:06:24.032Z,101084.94
2023-04-09T15:08:52.071Z,101087.03
2023-04-09T15:11:23.008Z,101088.09
2023-04-09T15:13:51.527Z,101080.91
2023-04-09T15:16:24.817Z,101086.38
2023-04-09T15:18:56.206Z,101085.47
2023-04-09T15:21:24.530Z,101074.75
2023-04-09T15:23:53.114Z,101079.69
2023-04-09T15:26:21.427Z,101075.53
2023-04-09T15:28:49.418Z,101076.31
2023-04-09T15:31:17.413Z,101073.41
2023-04-09T15:33:45.754Z,101068.72
2023-04-09T15:36:13.759Z,101074.81
2023-04-09T15:38:41.483Z,101072.84
2023-04-09T15:41:10.565Z,101087.53
2023-04-09T15:43:38.286Z,101080.16
2023-04-09T15:46:12.542Z,101085.63
2023-04-09T15:48:40.494Z,101072.38
2023-04-09T15:51:09.058Z,101084.78
2023-04-09T15:53:37.009Z,101079.34
2023-04-09T15:56:05.573Z,101077.22
2023-04-09T15:58:33.382Z,101091.22
2023-04-09T16:01:01.557Z,101089.81
2023-04-09T16:03:29.400Z,101088.03
2023-04-09T16:05:57.285Z,101086.31
2023-04-09T16:08:26.242Z,101089.75
2023-04-09T16:10:54.214Z,101089.88
2023-04-09T16:13:21.813Z,101092.56
2023-04-09T16:15:51.145Z,101090.41
2023-04-09T16:18:18.914Z,101094.88
2023-04-09T16:20:47.161Z,101097.44
2023-04-09T16:23:14.813Z,101097.75
2023-04-09T16:25:42.886Z,101098.03
2023-04-09T16:28:10.712Z,101098.72
2023-04-09T16:30:38.654Z,101094.50
2023-04-09T16:33:08.747Z,101090.91
2023-04-09T16:35:39.442Z,101092.94
2023-04-09T16:38:07.853Z,101092.34
2023-04-09T16:40:35.965Z,101088.91
2023-04-09T16:43:03.887Z,101092.78
2023-04-09T16:45:32.113Z,101092.75
2023-04-09T16:47:59.939Z,101099.41
2023-04-09T16:50:27.888Z,101097.22
2023-04-09T16:52:55.611Z,101097.41
2023-04-09T16:55:23.719Z,101097.34
2023-04-09T16:57:51.395Z,101097.50
2023-04-09T17:00:20.916Z,101104.75
2023-04-09T17:02:49.054Z,101107.69
2023-04-09T17:05:17.974Z,101106.75
2023-04-09T17:07:45.845Z,101112.03
2023-04-09T17:10:14.694Z,101112.84
2023-04-09T17:12:42.820Z,101109.91
2023-04-09T17:15:11.344Z,101104.75
2023-04-09T17:17:39.027Z,101113.66
2023-04-09T17:20:07.704Z,101105.97
2023-04-09T17:22:35.675Z,101114.28
2023-04-09T17:25:04.810Z,101120.91
2023-04-09T17:27:32.520Z,101127.63
2023-04-09T17:30:00.522Z,101120.59
2023-04-09T17:32:28.247Z,101128.75
2023-04-09T17:34:56.172Z,101129.19
2023-04-09T17:37:24.279Z,101136.00
2023-04-09T17:39:52.213Z,101142.47
2023-04-09T17:42:21.920Z,101143.66
2023-04-09T17:44:50.585Z,101135.00
2023-04-09T17:47:18.773Z,101134.38
2023-04-09T17:49:46.784Z,101146.13
2023-04-09T17:52:14.864Z,101149.75
2023-04-09T17:54:45.506Z,101152.25
2023-04-09T17:57:14.035Z,101154.25
2023-04-09T17:59:41.957Z,101155.16
2023-04-09T18:02:09.846Z,101161.00
2023-04-09T18:04:38.379Z,101159.06
2023-04-09T18:07:06.387Z,101160.91
2023-04-09T18:09:34.507Z,101166.34
2023-04-09T18:12:02.832Z,101162.94
2023-04-09T18:14:32.466Z,101172.75
2023-04-09T18:17:01.123Z,101172.72
2023-04-09T18:19:29.247Z,101189.47
2023-04-09T18:21:56.951Z,101179.00
2023-04-09T18:24:26.279Z,101190.22
2023-04-09T18:26:53.876Z,101186.09
2023-04-09T18:29:21.888Z,101187.09
2023-04-09T18:31:49.481Z,101193.38
2023-04-09T18:34:17.823Z,101187.13
2023-04-09T18:36:45.562Z,101193.25
2023-04-09T18:39:13.499Z,101196.69
2023-04-09T18:41:42.407Z,101196.69
2023-04-09T18:44:10.840Z,101198.25
2023-04-09T18:46:38.625Z,101200.06
2023-04-09T18:49:07.094Z,101201.06
2023-04-09T18:51:34.713Z,101204.00
2023-04-09T18:54:02.849Z,101203.66
2023-04-09T18:56:30.442Z,101204.84
2023-04-09T18:58:58.318Z,101211.75
2023-04-09T19:01:26.042Z,101196.22
2023-04-09T19:03:54.502Z,101195.66
2023-04-09T19:06:23.382Z,101200.28
2023-04-09T19:08:57.218Z,101198.13
2023-04-09T19:11:26.077Z,101199.84
2023-04-09T19:13:54.089Z,101197.25
2023-04-09T19:16:22.082Z,101190.41
2023-04-09T19:18:50.028Z,101193.13
2023-04-09T19:21:18.618Z,101198.66
2023-04-09T19:23:46.855Z,101199.69
2023-04-09T19:26:14.800Z,101197.38
2023-04-09T19:28:42.752Z,101197.38
2023-04-09T19:31:12.721Z,101198.44
2023-04-09T19:33:40.751Z,101192.41
2023-04-09T19:36:08.417Z,101205.53
2023-04-09T19:38:36.460Z,101198.44
2023-04-09T19:41:04.389Z,101198.59
2023-04-09T19:43:32.357Z,101197.66
2023-04-09T19:46:04.288Z,101195.19
2023-04-09T19:48:32.353Z,101192.59
2023-04-09T19:50:59.924Z,101197.09
2023-04-09T19:53:28.009Z,101189.25
2023-04-09T19:55:55.671Z,101195.38
2023-04-09T19:58:24.069Z,101193.56
2023-04-09T20:00:51.746Z,101195.00
2023-04-09T20:03:19.773Z,101196.72
2023-04-09T20:05:47.866Z,101193.16
2023-04-09T20:08:16.063Z,101194.03
2023-04-09T20:10:46.447Z,101193.34
2023-04-09T20:13:14.630Z,101188.94
2023-04-09T20:15:42.924Z,101187.97
2023-04-09T20:18:11.214Z,101196.09
2023-04-09T20:20:38.826Z,101193.81
2023-04-09T20:23:06.687Z,101196.69
2023-04-09T20:25:36.604Z,101195.50
2023-04-09T20:28:04.894Z,101197.19
2023-04-09T20:30:32.650Z,101199.34
2023-04-09T20:33:01.354Z,101199.38
2023-04-09T20:35:29.224Z,101195.44
2023-04-09T20:37:57.229Z,101199.25
2023-04-09T20:40:25.121Z,101201.31
2023-04-09T20:42:53.078Z,101195.84
2023-04-09T20:45:20.796Z,101195.31
2023-04-09T20:47:49.748Z,101197.22
2023-04-09T20:50:19.392Z,101193.25
2023-04-09T20:52:47.922Z,101191.63
2023-04-09T20:55:15.596Z,101192.59
2023-04-09T20:57:43.898Z,101201.59
2023-04-09T21:00:12.167Z,101193.19
2023-04-09T21:02:41.109Z,101195.19
2023-04-09T21:05:21.768Z,101190.00
2023-04-09T21:07:54.509Z,101190.25
2023-04-09T21:10:22.166Z,101193.06
2023-04-09T21:12:50.205Z,101187.25
2023-04-09T21:15:17.928Z,101192.78
2023-04-09T21:17:46.064Z,101185.97
2023-04-09T21:20:15.182Z,101192.13
2023-04-09T21:22:43.151Z,101184.84
2023-04-09T21:25:12.646Z,101185.16
2023-04-09T21:27:42.131Z,101184.56
2023-04-09T21:30:10.031Z,101180.44
2023-04-09T21:32:38.525Z,101183.06
2023-04-09T21:35:06.657Z,101191.69
2023-04-09T21:37:36.315Z,101182.25
2023-04-09T21:40:04.779Z,101190.16
2023-04-09T21:42:32.651Z,101186.41
2023-04-09T21:45:01.415Z,101188.41
2023-04-09T21:47:29.468Z,101189.31
2023-04-09T21:49:57.655Z,101192.06
2023-04-09T21:52:26.312Z,101183.50
2023-04-09T21:54:54.073Z,101186.16
2023-04-09T21:57:22.686Z,101183.63
2023-04-09T21:59:50.397Z,101191.53
2023-04-09T22:02:18.532Z,101189.75
2023-04-09T22:04:46.610Z,101193.19
2023-04-09T22:07:14.557Z,101192.31
2023-04-09T22:09:42.243Z,101189.81
2023-04-09T22:12:10.171Z,101193.34
2023-04-09T22:14:39.168Z,101183.00
2023-04-09T22:17:08.844Z,101189.13
2023-04-09T22:19:36.479Z,101189.16
2023-04-09T22:22:04.603Z,101190.09
2023-04-09T22:24:32.297Z,101192.78
2023-04-09T22:27:01.670Z,101191.19
2023-04-09T22:29:29.698Z,101197.31
2023-04-09T22:31:58.121Z,101198.25
2023-04-09T22:34:26.309Z,101205.13
2023-04-09T22:36:54.315Z,101203.47
2023-04-09T22:39:21.966Z,101201.75
2023-04-09T22:41:49.879Z,101198.16
2023-04-09T22:44:17.610Z,101197.38
2023-04-09T22:46:46.301Z,101194.78
2023-04-09T22:49:14.256Z,101199.16
2023-04-09T22:51:42.704Z,101207.84
2023-04-09T22:54:10.493Z,101207.00
2023-04-09T22:56:38.623Z,101201.03
2023-04-09T22:59:06.309Z,101201.88
2023-04-09T23:01:34.408Z,101198.47
2023-04-09T23:04:02.165Z,101201.09
2023-04-09T23:06:31.012Z,101201.97
2023-04-09T23:09:00.027Z,101195.06
2023-04-09T23:11:28.192Z,101201.16
2023-04-09T23:13:56.045Z,101207.28
2023-04-09T23:16:24.068Z,101196.91
2023-04-09T23:18:51.889Z,101200.38
2023-04-09T23:21:19.950Z,101192.59
2023-04-09T23:23:47.646Z,101196.94
2023-04-09T23:26:15.586Z,101196.97
2023-04-09T23:28:43.210Z,101189.16
2023-04-09T23:31:11.507Z,101191.75
2023-04-09T23:33:39.237Z,101191.81
2023-04-09T23:36:07.513Z,101193.53
2023-04-09T23:38:35.380Z,101186.63
2023-04-09T23:41:03.389Z,101190.06
2023-04-09T23:43:31.215Z,101191.78
2023-04-09T23:45:59.093Z,101179.66
2023-04-09T23:48:26.793Z,101182.25
2023-04-09T23:50:54.780Z,101174.47
2023-04-09T23:53:22.379Z,101177.06
2023-04-09T23:55:51.094Z,101175.34
2023-04-09T23:58:18.963Z,101181.44
